Time;durP1;ratioP1;P1;durP2;ratioP2;P2;SDS_P1;SDS_P2;PMS_P1;PMS_P2;Temp;Humidity;BMP_temperature;BMP_pressure;BME280_temperature;BME280_humidity;BME280_pressure;Samples;Min_cycle;Max_cycle;Signal;HPM_P1;HPM_P2
2022/03/03 00:01:36;;;;;;;17.00;12.33;;;;;;;3.87;92.97;99268.91;5053847;28;20721;-67
2022/03/03 00:04:03;;;;;;;17.17;12.43;;;;;;;3.84;93.40;99269.78;5053619;28;20287;-67
2022/03/03 00:06:30;;;;;;;18.43;12.93;;;;;;;3.86;94.05;99265.53;5053653;28;20305;-67
2022/03/03 00:08:57;;;;;;;16.50;12.03;;;;;;;3.88;93.95;99263.81;5052540;28;20197;-67
2022/03/03 00:11:24;;;;;;;13.30;11.87;;;;;;;3.82;94.42;99260.47;5052696;28;20217;-67
2022/03/03 00:13:51;;;;;;;13.07;11.17;;;;;;;3.75;94.39;99259.66;5052290;28;20208;-67
2022/03/03 00:16:18;;;;;;;14.97;11.33;;;;;;;3.77;94.45;99268.13;5053345;28;20196;-67
2022/03/03 00:18:46;;;;;;;14.63;11.40;;;;;;;3.75;94.22;99259.66;5053368;28;20284;-67
2022/03/03 00:21:13;;;;;;;14.90;12.57;;;;;;;3.75;94.11;99257.13;5053210;28;20196;-67
2022/03/03 00:23:40;;;;;;;15.67;13.30;;;;;;;3.79;94.11;99258.81;5053092;28;20661;-67
2022/03/03 00:26:08;;;;;;;15.73;11.93;;;;;;;3.72;94.15;99238.59;5053239;28;20669;-67
2022/03/03 00:28:35;;;;;;;16.07;11.30;;;;;;;3.79;93.50;99252.88;5053561;28;20688;-68
2022/03/03 00:31:02;;;;;;;14.93;11.63;;;;;;;3.78;93.74;99254.56;5052780;28;20212;-67
2022/03/03 00:33:29;;;;;;;17.97;11.93;;;;;;;3.68;93.93;99238.56;5053237;28;20220;-67
2022/03/03 00:35:58;;;;;;;13.37;11.03;;;;;;;3.75;93.69;99251.25;5051629;28;20258;-67
2022/03/03 00:38:25;;;;;;;13.17;11.87;;;;;;;3.79;94.09;99243.59;5052933;28;20246;-67
2022/03/03 00:40:52;;;;;;;13.17;11.83;;;;;;;3.76;93.71;99241.06;5052917;28;20196;-67
2022/03/03 00:43:19;;;;;;;14.23;11.53;;;;;;;3.64;93.58;99225.94;5052944;28;20203;-68
2022/03/03 00:45:46;;;;;;;13.23;11.60;;;;;;;3.70;93.61;99246.19;5052598;28;20291;-67
2022/03/03 00:48:13;;;;;;;15.83;11.90;;;;;;;3.74;93.83;99247.84;5052678;28;20717;-67
2022/03/03 00:50:40;;;;;;;12.73;11.10;;;;;;;3.74;93.36;99247.84;5052979;28;20574;-67
2022/03/03 00:53:08;;;;;;;16.97;11.97;;;;;;;3.69;93.35;99232.66;5052679;28;20291;-67
2022/03/03 00:55:35;;;;;;;15.23;12.07;;;;;;;3.71;93.69;99237.75;5050283;28;20571;-67
2022/03/03 00:58:03;;;;;;;12.30;11.13;;;;;;;3.76;93.43;99243.63;5052491;28;20637;-68
2022/03/03 01:00:30;;;;;;;11.47;10.47;;;;;;;3.74;93.02;99245.31;5052447;28;20254;-67
2022/03/03 01:02:57;;;;;;;12.60;11.30;;;;;;;3.73;92.75;99241.09;5052483;28;20287;-67
2022/03/03 01:05:24;;;;;;;11.57;10.17;;;;;;;3.64;93.08;99225.94;5051724;28;20204;-67
2022/03/03 01:07:51;;;;;;;11.80;10.60;;;;;;;3.70;92.57;99233.50;5052376;28;20201;-67
2022/03/03 01:10:19;;;;;;;12.70;11.23;;;;;;;3.68;93.12;99232.69;5051092;28;20744;-67
2022/03/03 01:12:46;;;;;;;13.83;11.10;;;;;;;3.70;93.21;99241.13;5052567;28;20220;-67
2022/03/03 01:15:13;;;;;;;12.37;10.77;;;;;;;3.72;92.99;99234.31;5051203;28;20616;-67
2022/03/03 01:17:40;;;;;;;14.00;10.70;;;;;;;3.69;93.31;99240.28;5052011;28;20219;-67
2022/03/03 01:20:09;;;;;;;12.37;11.27;;;;;;;3.68;92.74;99232.69;5051534;28;20291;-67
2022/03/03 01:22:36;;;;;;;12.53;10.17;;;;;;;3.69;92.68;99226.75;5050385;28;20189;-67
2022/03/03 01:25:06;;;;;;;11.80;10.60;;;;;;;3.68;92.79;99232.69;5050173;28;20204;-67
2022/03/03 01:27:34;;;;;;;14.20;11.30;;;;;;;3.69;92.75;99225.06;5050288;28;20196;-67
2022/03/03 01:30:02;;;;;;;14.03;10.47;;;;;;;3.59;92.61;99217.50;5050420;28;20200;-67
2022/03/03 01:32:30;;;;;;;13.23;10.73;;;;;;;3.59;92.73;99225.09;5050150;28;20585;-67
2022/03/03 01:34:57;;;;;;;11.83;10.73;;;;;;;3.49;92.52;99200.69;5050438;28;20196;-67
2022/03/03 01:37:24;;;;;;;10.53;9.63;;;;;;;3.63;92.50;99224.25;5050378;28;20216;-67
2022/03/03 01:39:50;;;;;;;13.00;11.17;;;;;;;3.55;92.42;99210.78;5051344;28;20207;-67
2022/03/03 01:42:18;;;;;;;10.70;9.57;;;;;;;3.61;92.77;99220.88;5049714;28;20204;-67
2022/03/03 01:44:47;;;;;;;11.33;9.90;;;;;;;3.58;92.32;99220.91;5049859;28;20609;-67
2022/03/03 01:47:19;;;;;;;11.87;9.83;;;;;;;3.62;91.71;99222.56;5049593;28;20287;-67
2022/03/03 01:49:47;;;;;;;11.87;10.27;;;;;;;3.60;91.80;99225.13;5049917;28;20653;-67
2022/03/03 01:52:14;;;;;;;11.57;10.37;;;;;;;3.47;91.74;99199.84;5049587;28;20217;-67
2022/03/03 01:54:41;;;;;;;11.90;10.10;;;;;;;3.52;91.87;99211.63;5049332;28;20192;-67
2022/03/03 01:57:08;;;;;;;11.27;10.13;;;;;;;3.59;91.95;99225.09;5051493;28;20254;-67
2022/03/03 01:59:36;;;;;;;12.43;9.30;;;;;;;3.57;91.80;99220.06;5051346;28;20197;-66
2022/03/03 02:02:07;;;;;;;15.20;11.13;;;;;;;3.53;92.48;99217.53;5051596;28;20193;-67
2022/03/03 02:04:34;;;;;;;11.47;10.13;;;;;;;3.56;92.71;99223.44;5050781;28;20283;-67
2022/03/03 02:07:01;;;;;;;10.70;9.80;;;;;;;3.45;92.82;99199.00;5050754;28;20207;-67
2022/03/03 02:09:28;;;;;;;14.23;10.47;;;;;;;3.54;92.89;99215.00;5050997;28;20212;-67
2022/03/03 02:11:55;;;;;;;11.50;9.93;;;;;;;3.54;92.65;99209.94;5051042;28;20661;-67
2022/03/03 02:14:22;;;;;;;11.13;9.97;;;;;;;3.57;93.07;99211.63;5051185;28;20205;-67
2022/03/03 02:16:49;;;;;;;11.27;10.17;;;;;;;3.58;92.64;99216.69;5051115;28;20669;-67
2022/03/03 02:19:17;;;;;;;10.80;9.80;;;;;;;3.53;92.88;99212.47;5050960;28;20284;-67
2022/03/03 02:21:47;;;;;;;13.27;9.77;;;;;;;3.51;93.27;99209.13;5050820;28;20207;-67
2022/03/03 02:24:14;;;;;;;12.03;10.80;;;;;;;3.42;93.88;99204.94;5051118;28;20201;-67
2022/03/03 02:26:42;;;;;;;11.20;9.83;;;;;;;3.41;94.30;99202.41;5051264;28;20192;-67
2022/03/03 02:29:09;;;;;;;10.97;9.97;;;;;;;3.36;93.81;99194.00;5051175;28;20201;-67
2022/03/03 02:31:36;;;;;;;11.87;10.87;;;;;;;3.38;94.35;99202.41;5050816;28;20220;-68
2022/03/03 02:34:03;;;;;;;11.70;10.07;;;;;;;3.25;94.33;99175.44;5050762;28;20205;-67
2022/03/03 02:36:30;;;;;;;9.73;8.83;;;;;;;3.33;94.07;99199.06;5050547;28;20200;-67
2022/03/03 02:39:00;;;;;;;11.30;10.23;;;;;;;3.33;94.32;99201.59;5050591;28;20224;-67
2022/03/03 02:41:28;;;;;;;12.13;9.80;;;;;;;3.26;94.62;99205.00;5050734;28;20232;-68
2022/03/03 02:43:56;;;;;;;10.97;9.60;;;;;;;3.21;94.31;99186.44;5050423;28;20284;-67
2022/03/03 02:46:23;;;;;;;14.93;10.13;;;;;;;3.27;94.67;99199.06;5050472;28;20192;-67
2022/03/03 02:48:50;;;;;;;11.83;10.63;;;;;;;3.32;93.78;99202.44;5050347;28;20204;-67
2022/03/03 02:51:17;;;;;;;12.30;11.00;;;;;;;3.22;93.48;99186.44;5050654;28;20287;-67
2022/03/03 02:53:44;;;;;;;10.47;9.43;;;;;;;3.32;93.69;99198.22;5050521;28;20200;-67
2022/03/03 02:56:12;;;;;;;12.27;10.97;;;;;;;3.35;93.71;99202.44;5050776;28;20558;-67
2022/03/03 02:58:39;;;;;;;14.60;11.43;;;;;;;3.32;93.99;99187.25;5050601;28;20566;-67
2022/03/03 03:01:07;;;;;;;13.70;10.40;;;;;;;3.25;94.71;99191.50;5049598;28;20287;-67
2022/03/03 03:03:35;;;;;;;11.37;10.33;;;;;;;3.15;94.82;99175.50;5050392;28;20200;-67
2022/03/03 03:06:02;;;;;;;15.27;11.50;;;;;;;3.27;94.18;99184.72;5049720;28;20212;-67
2022/03/03 03:08:29;;;;;;;11.70;10.53;;;;;;;3.25;94.52;99185.59;5050627;28;20197;-67
2022/03/03 03:10:56;;;;;;;13.33;10.57;;;;;;;3.22;94.46;99190.66;5050410;28;20291;-67
2022/03/03 03:13:24;;;;;;;11.00;9.93;;;;;;;3.18;94.23;99185.63;5050489;28;20212;-67
2022/03/03 03:15:51;;;;;;;12.70;11.40;;;;;;;3.21;94.21;99188.97;5050478;28;20197;-67
2022/03/03 03:18:20;;;;;;;11.70;9.80;;;;;;;3.07;93.91;99167.06;5049193;28;20197;-67
2022/03/03 03:20:49;;;;;;;12.87;10.37;;;;;;;3.23;93.36;99189.81;5050087;28;20316;-67
2022/03/03 03:23:19;;;;;;;11.20;10.10;;;;;;;3.23;93.34;99187.28;5048864;28;20280;-67
2022/03/03 03:25:46;;;;;;;14.73;10.87;;;;;;;3.24;93.16;99186.41;5048571;28;20197;-67
2022/03/03 03:28:14;;;;;;;11.23;10.07;;;;;;;3.28;92.86;99185.56;5048299;28;20758;-68
2022/03/03 03:30:43;;;;;;;16.07;11.27;;;;;;;3.30;92.94;99183.84;5048391;28;20225;-66
2022/03/03 03:33:10;;;;;;;17.00;10.63;;;;;;;3.28;93.39;99186.41;5048031;28;20209;-67
2022/03/03 03:35:37;;;;;;;9.67;8.87;;;;;;;3.29;92.79;99187.25;5048638;28;20607;-67
2022/03/03 03:38:04;;;;;;;13.83;10.70;;;;;;;3.33;92.47;99188.94;5048361;28;20578;-67
2022/03/03 03:40:31;;;;;;;10.30;9.00;;;;;;;3.22;92.30;99165.34;5048482;28;20280;-68
2022/03/03 03:42:58;;;;;;;14.00;10.83;;;;;;;3.37;92.04;99188.06;5048249;28;20212;-67
2022/03/03 03:45:25;;;;;;;12.03;9.97;;;;;;;3.35;92.22;99190.63;5048000;28;20686;-67
2022/03/03 03:47:53;;;;;;;10.50;9.50;;;;;;;3.32;92.64;99197.38;5048630;28;20247;-67
2022/03/03 03:50:20;;;;;;;11.30;9.47;;;;;;;3.35;92.99;99193.16;5050770;28;20193;-67
2022/03/03 03:52:47;;;;;;;11.97;10.00;;;;;;;3.38;92.77;99197.34;5052425;28;20307;-67
2022/03/03 03:55:14;;;;;;;14.07;10.63;;;;;;;3.33;93.28;99194.00;5054075;28;20211;-67
2022/03/03 03:57:42;;;;;;;12.60;10.53;;;;;;;3.40;93.11;99190.56;5053668;28;20227;-67
2022/03/03 04:00:12;;;;;;;11.73;10.23;;;;;;;3.37;93.03;99188.06;5051988;28;20703;-67
2022/03/03 04:02:39;;;;;;;11.77;10.67;;;;;;;3.45;92.56;99191.41;5052448;28;20228;-67
2022/03/03 04:05:09;;;;;;;11.13;10.00;;;;;;;3.45;92.77;99199.00;5053949;28;20592;-68
2022/03/03 04:07:36;;;;;;;10.73;9.67;;;;;;;3.36;92.38;99174.53;5053315;28;20283;-67
2022/03/03 04:10:04;;;;;;;11.17;10.07;;;;;;;3.45;92.18;99188.88;5053672;28;20771;-67
2022/03/03 04:12:31;;;;;;;10.93;9.77;;;;;;;3.44;91.72;99193.09;5053280;28;20221;-67
2022/03/03 04:14:58;;;;;;;11.57;10.43;;;;;;;3.47;91.89;99194.75;5053275;28;20681;-67
2022/03/03 04:17:25;;;;;;;11.20;10.07;;;;;;;3.50;90.64;99193.06;5053405;28;20287;-67
2022/03/03 04:19:52;;;;;;;13.03;10.33;;;;;;;3.49;90.70;99196.44;5053598;28;20673;-67
2022/03/03 04:22:20;;;;;;;13.43;10.47;;;;;;;3.48;92.21;99194.78;5053333;28;20596;-67
2022/03/03 04:24:47;;;;;;;12.93;10.00;;;;;;;3.38;92.16;99177.94;5053050;28;20201;-67
2022/03/03 04:27:14;;;;;;;10.90;9.63;;;;;;;3.49;92.18;99195.63;5053180;28;20200;-67
2022/03/03 04:29:42;;;;;;;10.37;9.37;;;;;;;3.45;92.01;99199.00;5053166;28;20235;-67
2022/03/03 04:32:09;;;;;;;11.87;10.73;;;;;;;3.34;91.20;99176.25;5053061;28;20220;-67
2022/03/03 04:34:37;;;;;;;13.23;11.03;;;;;;;3.47;91.52;99187.16;5052872;28;20284;-67
2022/03/03 04:37:04;;;;;;;12.07;10.40;;;;;;;3.47;91.17;99194.75;5053058;28;20657;-67
2022/03/03 04:39:32;;;;;;;13.53;10.50;;;;;;;3.48;91.31;99199.00;5052919;28;20201;-67
2022/03/03 04:41:59;;;;;;;12.40;11.07;;;;;;;3.41;91.72;99192.25;5053243;28;20197;-67
2022/03/03 04:44:27;;;;;;;13.80;10.60;;;;;;;3.47;91.49;99203.22;5052703;28;20197;-67
2022/03/03 04:46:54;;;;;;;13.87;11.87;;;;;;;3.38;91.17;99188.06;5052891;28;20204;-67
2022/03/03 04:49:21;;;;;;;13.00;11.50;;;;;;;3.51;91.27;99201.50;5053188;28;20189;-67
2022/03/03 04:51:48;;;;;;;12.33;11.20;;;;;;;3.51;91.09;99204.88;5052701;28;20756;-67
2022/03/03 04:54:16;;;;;;;13.90;12.37;;;;;;;3.51;91.81;99198.97;5051889;28;20735;-67
2022/03/03 04:56:45;;;;;;;19.97;10.13;;;;;;;3.40;91.53;99181.28;5052246;28;20209;-67
2022/03/03 04:59:12;;;;;;;14.63;11.80;;;;;;;3.46;92.58;99200.66;5051256;28;20209;-66
2022/03/03 05:01:39;;;;;;;14.97;11.17;;;;;;;3.44;92.69;99197.31;5051918;28;20229;-67
2022/03/03 05:04:06;;;;;;;13.23;11.83;;;;;;;3.40;93.02;99198.16;5052706;28;20756;-67
2022/03/03 05:06:33;;;;;;;14.80;11.87;;;;;;;3.37;93.17;99196.50;5052475;28;20287;-67
2022/03/03 05:09:00;;;;;;;13.30;10.50;;;;;;;3.42;92.99;99204.09;5052897;28;20744;-67
2022/03/03 05:11:27;;;;;;;11.97;10.87;;;;;;;3.41;93.23;99197.34;5052375;28;20703;-67
2022/03/03 05:13:55;;;;;;;12.60;11.37;;;;;;;3.43;93.33;99200.69;5052507;28;20684;-67
2022/03/03 05:16:22;;;;;;;18.00;12.27;;;;;;;3.40;94.44;99206.63;5052285;28;20286;-67
2022/03/03 05:18:49;;;;;;;15.83;12.67;;;;;;;3.38;95.23;99212.56;5052144;28;20595;-67
2022/03/03 05:21:16;;;;;;;13.93;11.83;;;;;;;3.37;95.57;99208.31;5052304;28;20231;-68
2022/03/03 05:23:43;;;;;;;11.97;10.67;;;;;;;3.36;96.20;99210.00;5051401;28;20204;-68
2022/03/03 05:26:10;;;;;;;13.03;11.50;;;;;;;3.32;96.58;99203.28;5050631;28;20295;-67
2022/03/03 05:28:37;;;;;;;13.93;10.10;;;;;;;3.39;96.36;99204.09;5050400;28;20196;-67
2022/03/03 05:31:05;;;;;;;13.00;10.23;;;;;;;3.45;96.07;99209.16;5050683;28;20625;-67
2022/03/03 05:33:34;;;;;;;15.80;13.20;;;;;;;3.46;95.82;99208.28;5049791;28;20217;-67
2022/03/03 05:36:06;;;;;;;24.07;12.00;;;;;;;3.39;95.34;99193.97;5048374;28;20205;-67
2022/03/03 05:38:34;;;;;;;13.13;11.53;;;;;;;3.52;94.78;99209.09;5046638;28;20256;-67
2022/03/03 05:41:02;;;;;;;14.30;12.13;;;;;;;3.60;94.64;99206.53;5050033;28;20205;-67
2022/03/03 05:43:31;;;;;;;14.13;12.67;;;;;;;3.58;94.49;99200.63;5051203;28;20681;-68
2022/03/03 05:45:58;;;;;;;14.30;12.60;;;;;;;3.59;94.15;99208.22;5049797;28;20218;-67
2022/03/03 05:48:27;;;;;;;14.97;11.87;;;;;;;3.60;94.09;99204.00;5050447;28;20193;-67
2022/03/03 05:50:56;;;;;;;12.70;10.90;;;;;;;3.65;93.57;99202.28;5049771;28;20199;-68
2022/03/03 05:53:23;;;;;;;12.87;11.10;;;;;;;3.72;93.54;99203.91;5049991;28;20299;-67
2022/03/03 05:55:53;;;;;;;14.67;12.00;;;;;;;3.75;93.83;99208.16;5049282;28;20197;-67
2022/03/03 05:58:23;;;;;;;16.30;13.07;;;;;;;3.71;93.80;99204.78;5045505;28;20764;-67
2022/03/03 06:00:54;;;;;;;14.87;12.07;;;;;;;3.77;94.68;99207.28;5051115;28;20649;-67
2022/03/03 06:03:22;;;;;;;19.27;13.10;;;;;;;3.76;94.30;99210.66;5051698;28;20200;-68
2022/03/03 06:05:53;;;;;;;15.53;13.07;;;;;;;3.75;94.73;99205.63;5050883;28;20288;-67
2022/03/03 06:08:26;;;;;;;16.87;13.50;;;;;;;3.82;94.47;99205.53;5051038;28;20203;-68
2022/03/03 06:10:54;;;;;;;18.03;13.37;;;;;;;3.82;94.99;99210.63;5050183;28;20550;-68
2022/03/03 06:13:24;;;;;;;15.63;13.20;;;;;;;3.87;94.41;99203.84;5050537;28;20229;-68
2022/03/03 06:15:52;;;;;;;14.30;11.87;;;;;;;3.93;94.29;99213.94;5051480;28;20246;-67
2022/03/03 06:18:24;;;;;;;17.77;12.43;;;;;;;3.96;93.67;99203.78;5049536;28;20208;-68
2022/03/03 06:20:53;;;;;;;16.13;13.27;;;;;;;3.96;92.71;99188.56;5051022;28;20311;-68
2022/03/03 06:23:21;;;;;;;17.63;13.00;;;;;;;4.16;92.69;99214.63;5049656;28;20580;-67
2022/03/03 06:25:52;;;;;;;13.20;11.73;;;;;;;4.23;92.15;99208.63;5050748;28;20204;-67
2022/03/03 06:28:19;;;;;;;15.63;12.37;;;;;;;4.35;93.18;99212.78;5050624;28;20197;-68
2022/03/03 06:30:46;;;;;;;13.73;11.87;;;;;;;4.41;91.77;99211.88;5051120;28;20316;-68
2022/03/03 06:33:13;;;;;;;12.53;11.33;;;;;;;4.46;92.25;99220.31;5050704;28;20300;-68
2022/03/03 06:35:40;;;;;;;16.03;11.90;;;;;;;4.53;92.16;99214.28;5050666;28;20207;-68
2022/03/03 06:38:08;;;;;;;15.53;12.77;;;;;;;4.61;91.86;99215.09;5050589;28;20232;-67
2022/03/03 06:40:36;;;;;;;12.87;11.53;;;;;;;4.66;91.58;99218.41;5050904;28;20288;-68
2022/03/03 06:43:03;;;;;;;13.27;10.77;;;;;;;4.74;91.75;99224.28;5046601;28;20201;-66
2022/03/03 06:45:31;;;;;;;15.17;11.13;;;;;;;4.81;92.11;99228.44;5050475;28;20776;-66
2022/03/03 06:47:59;;;;;;;21.17;12.37;;;;;;;4.80;92.52;99210.66;5050373;28;20585;-66
2022/03/03 06:50:27;;;;;;;13.60;11.73;;;;;;;4.83;92.40;99206.41;5050175;28;20656;-66
2022/03/03 06:52:54;;;;;;;13.10;10.43;;;;;;;5.00;91.80;99216.38;5049905;28;20307;-66
2022/03/03 06:55:24;;;;;;;15.77;12.03;;;;;;;5.07;92.06;99221.34;5049446;28;20304;-66
2022/03/03 06:57:55;;;;;;;16.10;12.63;;;;;;;5.16;92.04;99223.81;5048136;28;20615;-66
2022/03/03 07:00:24;;;;;;;15.43;12.40;;;;;;;5.11;92.06;99201.84;5049526;28;21701;-66
2022/03/03 07:02:52;;;;;;;15.10;12.43;;;;;;;5.22;92.04;99216.13;5045801;28;20207;-66
2022/03/03 07:05:20;;;;;;;19.33;14.43;;;;;;;5.15;91.44;99219.59;5046455;28;20204;-66
2022/03/03 07:07:49;;;;;;;18.57;13.67;;;;;;;5.19;90.91;99220.41;5047901;28;20283;-68
2022/03/03 07:10:23;;;;;;;17.07;12.07;;;;;;;5.16;89.70;99226.38;5048581;28;20236;-67
2022/03/03 07:12:53;;;;;;;12.40;11.10;;;;;;;5.16;88.64;99234.00;5049241;28;20601;-67
2022/03/03 07:15:20;;;;;;;13.23;11.70;;;;;;;5.20;89.91;99222.91;5049346;28;20739;-67
2022/03/03 07:17:50;;;;;;;18.43;12.23;;;;;;;5.35;89.77;99221.06;5049108;28;20204;-67
2022/03/03 07:20:19;;;;;;;15.73;13.17;;;;;;;5.43;89.97;99224.38;5048446;28;20209;-67
2022/03/03 07:23:02;;;;;;;18.33;12.63;;;;;;;5.43;90.16;99220.09;5049690;28;20200;-67
2022/03/03 07:25:39;;;;;;;15.83;11.43;;;;;;;5.47;89.61;99225.97;5049853;28;20240;-69
2022/03/03 07:28:10;;;;;;;13.83;12.03;;;;;;;5.67;89.96;99224.88;5050281;28;20215;-68
2022/03/03 07:30:41;;;;;;;16.10;13.00;;;;;;;5.84;89.68;99227.19;5052017;28;20295;-68
2022/03/03 07:33:12;;;;;;;25.70;12.40;;;;;;;5.97;88.91;99223.66;5053696;28;20708;-68
2022/03/03 07:35:41;;;;;;;19.70;10.57;;;;;;;6.10;88.18;99225.16;5053376;28;20661;-68
2022/03/03 07:38:14;;;;;;;11.90;9.00;;;;;;;6.20;87.34;99226.66;5050918;28;20255;-68
2022/03/03 07:40:43;;;;;;;12.10;10.40;;;;;;;6.28;86.28;99221.47;5052313;28;20204;-66
2022/03/03 07:43:11;;;;;;;19.40;11.23;;;;;;;6.05;84.21;99200.63;5053652;28;20669;-67
2022/03/03 07:45:39;;;;;;;15.83;11.83;;;;;;;6.27;87.30;99217.22;5052635;28;20280;-66
2022/03/03 07:48:06;;;;;;;12.53;10.53;;;;;;;6.25;85.71;99209.63;5052874;28;20743;-68
2022/03/03 07:50:39;;;;;;;10.90;9.83;;;;;;;6.24;85.37;99220.69;5051937;28;20207;-66
2022/03/03 07:53:10;;;;;;;11.53;10.37;;;;;;;6.26;84.73;99213.88;5052206;28;20276;-67
2022/03/03 07:55:42;;;;;;;16.10;11.93;;;;;;;6.30;86.39;99215.47;5053150;28;20201;-67
2022/03/03 07:58:15;;;;;;;11.43;10.23;;;;;;;6.37;86.96;99215.38;5053103;28;20308;-67
2022/03/03 08:00:47;;;;;;;10.87;9.47;;;;;;;6.39;84.37;99211.13;5051802;28;20196;-68
2022/03/03 08:03:17;;;;;;;10.67;9.00;;;;;;;6.31;82.95;99221.41;5052838;28;20204;-69
2022/03/03 08:05:45;;;;;;;25.10;11.23;;;;;;;6.39;83.49;99211.97;5052951;28;21000;-63
2022/03/03 08:08:16;;;;;;;12.67;11.37;;;;;;;6.46;82.65;99218.66;5053585;28;20254;-62
2022/03/03 08:10:44;;;;;;;10.80;9.27;;;;;;;6.43;81.66;99217.84;5052813;28;20292;-62
2022/03/03 08:13:13;;;;;;;10.13;9.17;;;;;;;6.44;81.73;99215.25;5051929;28;20727;-62
2022/03/03 08:15:42;;;;;;;10.60;9.53;;;;;;;6.24;81.57;99187.59;5052323;28;20695;-62
2022/03/03 08:18:10;;;;;;;11.50;10.50;;;;;;;6.47;82.69;99224.56;5052377;28;20243;-62
2022/03/03 08:20:38;;;;;;;10.30;9.33;;;;;;;6.48;83.01;99228.78;5052717;28;20300;-62
2022/03/03 08:23:06;;;;;;;10.70;9.73;;;;;;;6.46;84.09;99222.88;5052050;28;20215;-62
2022/03/03 08:25:35;;;;;;;11.00;9.90;;;;;;;6.45;83.10;99226.28;5052346;28;20200;-62
2022/03/03 08:28:03;;;;;;;11.23;10.07;;;;;;;6.52;83.61;99222.78;5052725;28;20205;-63
2022/03/03 08:30:30;;;;;;;9.70;8.80;;;;;;;6.59;82.73;99225.19;5053050;28;20205;-63
2022/03/03 08:33:05;;;;;;;10.13;9.27;;;;;;;6.69;81.42;99230.97;5051393;28;20704;-62
2022/03/03 08:35:36;;;;;;;94.43;52.47;;;;;;;6.73;82.78;99237.69;5051415;28;20206;-63
2022/03/03 08:38:06;;;;;;;10.20;9.40;;;;;;;6.81;81.30;99225.69;5051979;28;20237;-63
2022/03/03 08:40:35;;;;;;;10.67;9.53;;;;;;;6.90;81.67;99228.06;5052574;28;20208;-63
2022/03/03 08:43:06;;;;;;;11.20;10.07;;;;;;;7.07;82.61;99223.50;5051321;28;20443;-68
2022/03/03 08:45:34;;;;;;;11.20;10.20;;;;;;;7.25;81.99;99223.13;5051765;28;20669;-68
2022/03/03 08:48:06;;;;;;;14.80;9.67;;;;;;;7.30;80.38;99221.31;5050868;28;20212;-68
2022/03/03 08:50:36;;;;;;;12.80;9.40;;;;;;;7.33;78.70;99231.44;5050885;28;20251;-68
2022/03/03 08:53:05;;;;;;;10.57;9.47;;;;;;;7.34;79.58;99237.41;5050932;28;20204;-68
2022/03/03 08:55:34;;;;;;;17.50;10.03;;;;;;;7.28;77.38;99232.41;5052464;28;20720;-67
2022/03/03 08:58:01;;;;;;;10.73;9.73;;;;;;;7.22;78.19;99243.59;5051405;28;20205;-68
2022/03/03 09:00:30;;;;;;;8.57;7.77;;;;;;;7.23;78.10;99224.88;5051533;28;20213;-68
2022/03/03 09:02:58;;;;;;;11.07;9.20;;;;;;;7.36;78.92;99235.66;5051782;28;20204;-67
2022/03/03 09:05:26;;;;;;;13.03;10.20;;;;;;;7.47;77.45;99236.28;5051369;28;20735;-65
2022/03/03 09:07:53;;;;;;;18.87;13.90;;;;;;;7.53;77.37;99237.88;5051814;28;20209;-65
2022/03/03 09:10:20;;;;;;;16.23;11.97;;;;;;;7.59;77.25;99228.41;5051208;28;20751;-66
2022/03/03 09:12:47;;;;;;;13.60;11.73;;;;;;;7.76;78.36;99225.47;5049379;28;20204;-67
2022/03/03 09:15:15;;;;;;;10.23;9.10;;;;;;;7.95;79.90;99234.41;5051502;28;20312;-67
2022/03/03 09:17:42;;;;;;;8.27;7.47;;;;;;;8.06;75.56;99239.28;5049269;28;20200;-67
2022/03/03 09:20:13;;;;;;;8.20;7.40;;;;;;;8.05;74.72;99247.78;5050152;28;20197;-67
2022/03/03 09:22:42;;;;;;;8.00;7.20;;;;;;;7.94;73.05;99237.84;5050270;28;20255;-67
2022/03/03 09:25:10;;;;;;;8.60;7.90;;;;;;;7.93;72.77;99252.31;5050188;28;20205;-67
2022/03/03 09:27:37;;;;;;;8.27;7.60;;;;;;;7.93;74.16;99254.88;5048471;28;20204;-67
2022/03/03 09:30:06;;;;;;;9.00;8.13;;;;;;;8.04;74.70;99249.53;5049716;28;20220;-67
2022/03/03 09:32:33;;;;;;;8.67;7.53;;;;;;;8.01;72.72;99259.81;5050228;28;20205;-67
2022/03/03 09:35:00;;;;;;;9.07;8.17;;;;;;;7.99;74.00;99260.69;5050389;28;20787;-67
2022/03/03 09:37:27;;;;;;;8.50;7.80;;;;;;;8.06;74.01;99255.44;5049037;28;20240;-66
2022/03/03 09:39:55;;;;;;;9.30;8.37;;;;;;;8.04;74.60;99257.19;5050471;28;20662;-67
2022/03/03 09:42:22;;;;;;;7.20;6.53;;;;;;;8.01;73.70;99252.16;5050347;28;20569;-67
2022/03/03 09:44:49;;;;;;;6.90;6.23;;;;;;;8.09;74.40;99250.25;5049619;28;20239;-67
2022/03/03 09:47:17;;;;;;;8.27;7.30;;;;;;;8.24;73.38;99255.00;5049988;28;20288;-66
2022/03/03 09:49:44;;;;;;;6.60;6.17;;;;;;;8.52;73.41;99259.50;5050418;28;20233;-66
2022/03/03 09:52:15;;;;;;;8.27;7.63;;;;;;;8.82;73.85;99248.53;5050760;28;20221;-66
2022/03/03 09:54:42;;;;;;;14.43;7.13;;;;;;;9.04;71.73;99251.38;5050640;28;20219;-66
2022/03/03 09:57:11;;;;;;;7.37;6.80;;;;;;;8.83;70.81;99256.16;5050055;28;20300;-66
2022/03/03 09:59:38;;;;;;;7.10;6.47;;;;;;;8.73;71.63;99253.84;5047894;28;20209;-67
2022/03/03 10:02:06;;;;;;;7.53;7.03;;;;;;;8.66;73.24;99257.47;5044547;28;20209;-67
2022/03/03 10:04:34;;;;;;;6.97;6.47;;;;;;;8.51;71.39;99247.59;5049572;28;20285;-67
2022/03/03 10:07:05;;;;;;;6.83;6.33;;;;;;;8.33;72.51;99244.63;5049748;28;20685;-67
2022/03/03 10:09:32;;;;;;;8.47;6.43;;;;;;;8.25;72.02;99253.28;5049729;28;20673;-67
2022/03/03 10:12:01;;;;;;;8.30;6.17;;;;;;;8.38;72.35;99253.00;5050279;28;20327;-67
2022/03/03 10:14:31;;;;;;;7.63;6.87;;;;;;;8.34;71.28;99227.56;5050256;28;20220;-67
2022/03/03 10:16:58;;;;;;;8.50;7.80;;;;;;;8.51;72.24;99228.00;5047634;28;20661;-67
2022/03/03 10:19:25;;;;;;;8.93;8.13;;;;;;;8.80;71.79;99251.13;5050295;28;20752;-67
2022/03/03 10:21:52;;;;;;;8.77;7.87;;;;;;;8.80;71.38;99255.38;5050223;28;20223;-67
2022/03/03 10:24:22;;;;;;;20.43;7.63;;;;;;;8.89;71.22;99242.38;5048166;28;20291;-66
2022/03/03 10:26:57;;;;;;;7.90;7.10;;;;;;;8.88;71.93;99243.25;5050093;28;20228;-67
2022/03/03 10:29:25;;;;;;;7.83;7.13;;;;;;;9.09;69.70;99242.69;5049906;28;20262;-66
2022/03/03 10:31:55;;;;;;;9.10;7.23;;;;;;;9.43;73.31;99234.94;5048752;28;20212;-67
2022/03/03 10:34:24;;;;;;;7.63;7.00;;;;;;;9.67;69.58;99235.94;5047521;28;20798;-68
2022/03/03 10:36:56;;;;;;;6.57;6.07;;;;;;;9.72;66.56;99244.34;5048045;28;20677;-66
2022/03/03 10:39:24;;;;;;;7.53;6.83;;;;;;;9.56;70.21;99222.63;5048781;28;20235;-66
2022/03/03 10:41:55;;;;;;;7.90;6.90;;;;;;;9.62;68.42;99237.81;5041613;28;20212;-66
2022/03/03 10:44:28;;;;;;;7.97;7.33;;;;;;;9.72;70.25;99213.63;5048082;28;20331;-67
2022/03/03 10:47:06;;;;;;;10.73;7.60;;;;;;;10.06;70.04;99232.19;5048061;28;20662;-67
2022/03/03 10:49:34;;;;;;;10.13;7.40;;;;;;;10.21;69.92;99229.19;5049285;28;20250;-66
2022/03/03 10:52:15;;;;;;;7.77;7.07;;;;;;;10.22;67.77;99236.00;5046636;28;20216;-67
2022/03/03 10:54:56;;;;;;;9.07;7.20;;;;;;;9.86;65.96;99230.25;5047885;28;20212;-66
2022/03/03 10:57:39;;;;;;;10.13;7.20;;;;;;;9.62;68.69;99207.09;5046434;28;20201;-66
2022/03/03 11:00:10;;;;;;;7.47;6.90;;;;;;;9.67;67.77;99234.22;5047461;28;20784;-66
2022/03/03 11:02:40;;;;;;;8.20;7.33;;;;;;;9.53;68.48;99228.69;5045703;28;20299;-67
2022/03/03 11:05:10;;;;;;;8.03;7.37;;;;;;;9.36;68.15;99221.47;5048401;28;20203;-66
2022/03/03 11:07:39;;;;;;;7.37;6.77;;;;;;;9.45;68.88;99226.34;5048198;28;20581;-67
2022/03/03 11:10:08;;;;;;;8.77;7.67;;;;;;;9.51;68.67;99220.19;5048593;28;20283;-66
2022/03/03 11:12:35;;;;;;;8.60;7.73;;;;;;;9.46;69.22;99228.03;5048376;28;20204;-66
2022/03/03 11:15:03;;;;;;;6.77;6.17;;;;;;;9.43;66.59;99232.38;5048357;28;20315;-66
2022/03/03 11:17:31;;;;;;;7.07;6.37;;;;;;;9.30;66.75;99220.81;5048478;28;20704;-66
2022/03/03 11:20:00;;;;;;;9.50;7.37;;;;;;;9.38;67.14;99219.72;5046395;28;20208;-67
2022/03/03 11:22:27;;;;;;;8.13;7.43;;;;;;;9.27;66.97;99221.72;5047382;28;20266;-67
2022/03/03 11:24:58;;;;;;;7.03;6.33;;;;;;;9.34;67.92;99227.50;5049473;28;20276;-67
2022/03/03 11:27:36;;;;;;;7.83;7.23;;;;;;;9.35;67.76;99224.91;5048905;28;20196;-66
2022/03/03 11:30:28;;;;;;;7.80;6.30;;;;;;;9.14;66.34;99230.63;5048000;28;20240;-67
2022/03/03 11:33:20;;;;;;;8.07;7.43;;;;;;;9.07;68.54;99224.00;5047169;28;20200;-67
2022/03/03 11:35:50;;;;;;;10.20;7.30;;;;;;;9.03;68.31;99224.97;5048365;28;20220;-67